Aviation Digital Data Service (ADDS)

Output produced by METARs form (0641 UTC 24 March 2019)
found at http://www.aviationweather.gov/metar/data/
 
LYBE 240630Z 25003KT 8000 NSC 07/03 Q1024 NOSIG
TAF LYBE 240500Z 2406/2506 14005KT 8000 NSC TX21/2414Z TN01/2406Z
       
LYNI 240630Z 20003KT 150V260 CAVOK 06/01 Q1024 NOSIG
TAF LYNI 240500Z 2406/2506 10005KT CAVOK TX20/2413Z TN03/2505Z
       
LYVR 240630Z VRB02KT CAVOK 05/M02 Q1025 NOSIG
TAF LYVR 240500Z 2406/2506 02003KT CAVOK TX20/2413Z TNM00/2406Z
       
LYKV 240630Z VRB01KT CAVOK 05/02 Q1024 NOSIG
TAF LYKV 240500Z 2406/2506 VRB02KT CAVOK TX19/2413Z TNM00/2406Z
       
LYBT 240630Z 17003KT 130V200 CAVOK 07/02 Q1024 NOSIG
TAF LYBT 240500Z 2406/2506 19004KT CAVOK TX20/2413Z TN00/2406Z
       
LYUZ 240630Z 27003KT CAVOK 07/00 Q1024
TAF LYUZ 240500Z 2406/2506 VRB02KT CAVOK TX14/2413Z TN01/2505Z